Time;durP1;ratioP1;P1;durP2;ratioP2;P2;SDS_P1;SDS_P2;PMS_P1;PMS_P2;Temp;Humidity;BMP_temperature;BMP_pressure;BME280_temperature;BME280_humidity;BME280_pressure;Samples;Min_cycle;Max_cycle;Signal;HPM_P1;HPM_P2
2021/12/25 00:01:52;;;;;;;11.67;7.60;;;;;;;-7.29;68.37;98471.91;5114736;28;20036;-64
2021/12/25 00:04:17;;;;;;;9.70;7.63;;;;;;;-7.36;68.88;98460.34;5115168;28;20533;-61
2021/12/25 00:06:43;;;;;;;11.77;8.73;;;;;;;-7.21;69.54;98472.25;5114859;28;20091;-62
2021/12/25 00:09:09;;;;;;;11.52;9.60;;;;;;;-7.45;69.33;98455.00;5114894;28;20039;-63
2021/12/25 00:12:22;;;;;;;12.20;9.00;;;;;;;-7.31;70.43;98467.78;5114965;28;20047;-68
2021/12/25 00:14:48;;;;;;;16.65;8.00;;;;;;;-7.25;70.52;98483.69;5115592;28;20030;-66
2021/12/25 00:17:13;;;;;;;12.70;7.93;;;;;;;-7.40;70.04;98463.25;5096810;28;20562;-63
2021/12/25 00:19:45;;;;;;;10.73;7.30;;;;;;;-7.85;70.65;98426.72;5114801;28;20112;-66
2021/12/25 00:22:37;;;;;;;9.10;7.25;;;;;;;-7.57;70.62;98479.94;5099534;28;20364;-64
2021/12/25 00:25:03;;;;;;;13.63;8.63;;;;;;;-7.55;70.96;98485.81;5114503;28;20132;-63
2021/12/25 00:27:43;;;;;;;9.33;7.77;;;;;;;-7.73;70.84;98472.41;5115202;28;20050;-64
2021/12/25 00:30:45;;;;;;;9.13;7.22;;;;;;;-8.48;70.74;98353.50;5095928;28;20074;-67
2021/12/25 00:36:05;;;;;;;9.73;6.65;;;;;;;-7.64;70.58;98483.88;5082247;28;20039;-63
2021/12/25 00:38:32;;;;;;;14.37;7.97;;;;;;;-7.65;70.65;98495.13;5095872;28;20506;-62
2021/12/25 00:40:59;;;;;;;9.95;8.25;;;;;;;-7.68;70.99;98490.19;5114612;28;20129;-60
2021/12/25 00:43:27;;;;;;;9.90;7.47;;;;;;;-7.90;71.29;98476.13;5114305;28;20479;-62
2021/12/25 00:45:56;;;;;;;8.87;6.93;;;;;;;-7.97;71.14;98485.22;5114773;28;20114;-62
2021/12/25 00:48:21;;;;;;;10.00;6.38;;;;;;;-7.99;71.41;98484.50;5114441;28;20122;-61
2021/12/25 00:51:11;;;;;;;9.65;8.63;;;;;;;-8.05;71.87;98502.97;5114552;28;20088;-62
2021/12/25 00:53:37;;;;;;;12.37;8.47;;;;;;;-8.08;72.08;98503.19;5114576;28;20134;-63
2021/12/25 00:56:03;;;;;;;11.13;8.37;;;;;;;-8.08;71.47;98499.78;5114345;28;20038;-63
2021/12/25 00:58:29;;;;;;;10.02;7.72;;;;;;;-8.07;71.44;98499.69;5096976;28;20126;-61
2021/12/25 01:00:54;;;;;;;12.03;9.53;;;;;;;-8.09;71.81;98506.69;5114538;28;20047;-62
2021/12/25 01:03:19;;;;;;;11.80;8.23;;;;;;;-7.99;71.47;98505.16;5114606;28;20125;-64
2021/12/25 01:05:45;;;;;;;10.23;7.77;;;;;;;-8.40;71.20;98447.69;5096405;28;20126;-64
2021/12/25 01:08:14;;;;;;;10.50;7.23;;;;;;;-7.99;71.31;98502.56;5114670;28;20039;-63
2021/12/25 01:10:39;;;;;;;9.32;8.25;;;;;;;-7.92;71.66;98513.31;5114066;28;20038;-65
2021/12/25 01:13:26;;;;;;;12.73;7.00;;;;;;;-7.97;71.49;98521.38;5114262;28;20123;-63
2021/12/25 01:22:12;;;;;;;12.63;7.90;;;;;;;-8.27;69.81;98466.59;5030854;28;20037;-61
2021/12/25 01:30:17;;;;;;;8.52;6.40;;;;;;;-9.12;68.70;98481.50;5113614;28;20047;-62
2021/12/25 01:36:00;;;;;;;9.47;6.03;;;;;;;-9.06;68.57;98514.63;5114085;28;20337;-64
2021/12/25 01:41:19;;;;;;;6.65;5.35;;;;;;;-9.17;68.62;98511.91;5113983;28;20410;-67
2021/12/25 01:49:06;;;;;;;10.05;5.55;;;;;;;-9.23;68.55;98516.59;5113349;28;20522;-63
2021/12/25 01:51:34;;;;;;;5.63;5.05;;;;;;;-9.30;68.51;98495.50;5113113;28;20043;-65
2021/12/25 01:53:59;;;;;;;6.70;5.60;;;;;;;-9.33;68.46;98520.66;5113259;28;20395;-63
2021/12/25 01:56:25;;;;;;;6.03;4.53;;;;;;;-9.56;68.57;98509.97;5112696;28;20040;-63
2021/12/25 01:58:51;;;;;;;6.77;4.50;;;;;;;-9.65;68.57;98504.56;5113147;28;20028;-61
2021/12/25 02:01:17;;;;;;;6.13;4.68;;;;;;;-9.63;68.70;98518.16;5112822;28;20038;-62
2021/12/25 02:03:43;;;;;;;5.43;4.50;;;;;;;-9.68;69.52;98528.75;5112802;28;20065;-63
2021/12/25 02:06:11;;;;;;;7.00;4.87;;;;;;;-9.75;69.21;98522.31;5112971;28;20398;-63
2021/12/25 02:08:39;;;;;;;6.57;4.95;;;;;;;-9.80;69.27;98527.75;5112972;28;20490;-63
2021/12/25 02:11:05;;;;;;;4.95;4.55;;;;;;;-9.75;68.93;98527.47;5112563;28;20065;-65
2021/12/25 02:13:31;;;;;;;5.93;5.43;;;;;;;-9.81;69.29;98538.13;5112882;28;20164;-63
2021/12/25 02:15:58;;;;;;;8.50;4.70;;;;;;;-9.78;70.43;98556.81;5112872;28;20071;-63
2021/12/25 02:23:49;;;;;;;6.30;5.03;;;;;;;-9.49;69.18;98567.16;5094948;28;19915;-62
2021/12/25 02:26:16;;;;;;;5.70;4.90;;;;;;;-9.59;69.45;98547.97;5094546;28;20032;-64
2021/12/25 02:28:42;;;;;;;5.90;4.60;;;;;;;-9.46;69.14;98578.09;5112640;28;20121;-61
2021/12/25 02:31:10;;;;;;;5.60;5.03;;;;;;;-9.90;68.64;98518.88;5112167;28;20590;-64
2021/12/25 02:33:36;;;;;;;4.65;3.80;;;;;;;-9.71;69.00;98563.25;5112248;28;20031;-61
2021/12/25 02:36:03;;;;;;;5.75;4.40;;;;;;;-9.67;69.16;98574.19;5112260;28;20042;-64
2021/12/25 02:38:30;;;;;;;6.10;5.18;;;;;;;-9.75;69.32;98581.56;5111955;28;20094;-62
2021/12/25 02:41:02;;;;;;;6.57;5.13;;;;;;;-9.83;69.31;98584.59;5095091;28;20044;-64
2021/12/25 02:43:28;;;;;;;5.35;4.85;;;;;;;-10.05;69.99;98558.41;5112162;28;20483;-59
2021/12/25 02:45:55;;;;;;;5.97;5.38;;;;;;;-9.95;69.54;98574.97;5094432;28;20490;-63
2021/12/25 02:48:21;;;;;;;9.85;6.47;;;;;;;-9.90;70.02;98596.13;5112143;28;20425;-64
2021/12/25 02:50:48;;;;;;;7.72;6.38;;;;;;;-9.91;70.38;98594.47;5112139;28;20036;-62
2021/12/25 02:53:15;;;;;;;5.88;5.22;;;;;;;-9.92;70.22;98595.38;5112794;28;20415;-63
2021/12/25 02:55:45;;;;;;;6.07;4.70;;;;;;;-9.98;70.90;98595.75;5112184;28;20035;-68
2021/12/25 02:59:21;;;;;;;5.13;4.63;;;;;;;-10.14;70.26;98597.50;5094467;28;20052;-65
2021/12/25 03:01:52;;;;;;;6.40;4.10;;;;;;;-10.33;69.87;98583.16;5116502;28;20144;-61
2021/12/25 03:04:17;;;;;;;5.57;4.73;;;;;;;-10.43;70.37;98599.16;5116281;28;20110;-61
2021/12/25 03:06:42;;;;;;;4.53;4.13;;;;;;;-10.82;70.67;98555.91;5117104;28;20535;-61
2021/12/25 03:09:10;;;;;;;7.43;4.63;;;;;;;-10.78;70.29;98563.34;5116068;28;20508;-68
2021/12/25 03:11:36;;;;;;;4.65;4.15;;;;;;;-10.50;70.41;98598.69;5116011;28;20040;-61
2021/12/25 03:14:13;;;;;;;5.57;5.07;;;;;;;-10.38;69.87;98610.88;5098031;28;20043;-62
2021/12/25 03:16:39;;;;;;;7.53;5.93;;;;;;;-10.44;69.35;98608.63;5116157;28;20035;-63
2021/12/25 03:19:09;;;;;;;5.88;5.38;;;;;;;-10.58;69.48;98605.16;5116180;28;20027;-62
2021/12/25 03:21:34;;;;;;;5.47;3.92;;;;;;;-10.66;69.46;98608.16;5116805;28;20458;-63
2021/12/25 03:24:00;;;;;;;5.50;5.00;;;;;;;-10.74;68.79;98605.97;5115713;28;20179;-64
2021/12/25 03:26:25;;;;;;;5.17;4.77;;;;;;;-10.75;68.72;98608.63;5115634;28;20027;-63
2021/12/25 03:28:53;;;;;;;3.77;3.37;;;;;;;-10.84;67.88;98604.81;5115485;28;20034;-63
2021/12/25 03:31:21;;;;;;;3.90;3.50;;;;;;;-10.95;67.86;98607.16;5115751;28;20047;-62
2021/12/25 03:33:51;;;;;;;4.35;3.75;;;;;;;-11.10;68.26;98607.94;5115747;28;20035;-62
2021/12/25 03:36:17;;;;;;;6.70;4.00;;;;;;;-11.18;67.60;98610.94;5097255;28;20039;-62
2021/12/25 03:38:47;;;;;;;5.97;4.23;;;;;;;-11.18;67.16;98615.22;5115847;28;20450;-63
2021/12/25 03:41:15;;;;;;;4.32;3.85;;;;;;;-11.34;67.39;98597.19;5115739;28;20510;-60
2021/12/25 03:43:41;;;;;;;5.53;5.13;;;;;;;-11.22;67.46;98635.13;5115545;28;20180;-63
2021/12/25 03:46:09;;;;;;;5.22;3.97;;;;;;;-11.27;67.56;98631.97;5115672;28;20032;-62
2021/12/25 04:00:01;;;;;;;4.82;4.40;;;;;;;-11.71;66.76;98614.47;5052539;28;20036;-62
2021/12/25 04:02:34;;;;;;;6.45;4.93;;;;;;;-11.78;66.76;98609.75;5092271;28;20177;-62
2021/12/25 04:05:02;;;;;;;7.88;4.95;;;;;;;-11.86;67.52;98633.22;5115129;28;20406;-63
2021/12/25 04:09:58;;;;;;;7.83;5.03;;;;;;;-11.81;67.83;98648.44;5114635;28;20083;-64
2021/12/25 04:12:24;;;;;;;4.97;4.40;;;;;;;-11.90;67.40;98637.69;5114715;28;20062;-61
2021/12/25 04:14:49;;;;;;;7.83;4.73;;;;;;;-11.79;66.84;98642.31;5114987;28;20072;-61
2021/12/25 04:17:15;;;;;;;6.50;4.73;;;;;;;-11.76;66.86;98638.72;5096347;28;20039;-62
2021/12/25 04:19:41;;;;;;;4.77;4.23;;;;;;;-11.73;67.17;98643.72;5114828;28;20054;-61
2021/12/25 04:22:11;;;;;;;6.17;5.23;;;;;;;-11.65;66.66;98662.13;5115233;28;20035;-64
2021/12/25 04:24:40;;;;;;;5.68;5.30;;;;;;;-11.77;66.40;98648.16;5115159;28;20035;-62
2021/12/25 04:27:10;;;;;;;5.15;4.00;;;;;;;-11.84;66.73;98646.00;5114780;28;20085;-63
2021/12/25 04:29:43;;;;;;;5.18;4.78;;;;;;;-11.91;66.60;98640.31;5114523;28;20112;-64
2021/12/25 04:32:45;;;;;;;4.80;4.05;;;;;;;-11.74;66.63;98673.69;5114575;28;20035;-60
2021/12/25 05:02:24;;;;;;;4.78;3.85;;;;;;;-13.19;67.85;98700.09;5098633;28;20123;-65
2021/12/25 05:04:55;;;;;;;4.43;4.03;;;;;;;-13.20;67.53;98709.50;5114330;28;20034;-64
2021/12/25 05:07:21;;;;;;;4.30;4.00;;;;;;;-13.23;67.92;98711.38;5079708;28;20084;-64
2021/12/25 05:09:47;;;;;;;7.10;4.03;;;;;;;-13.22;67.67;98723.28;5114362;28;20040;-64
2021/12/25 05:12:12;;;;;;;5.10;4.70;;;;;;;-13.34;67.00;98713.53;5095415;28;20027;-60
2021/12/25 05:14:39;;;;;;;5.63;4.30;;;;;;;-13.58;66.41;98711.13;5113516;28;20130;-62
2021/12/25 05:17:06;;;;;;;5.22;4.82;;;;;;;-13.62;66.51;98719.78;5095666;28;20082;-64
2021/12/25 05:19:31;;;;;;;5.00;4.55;;;;;;;-13.82;66.58;98712.13;5113622;28;20135;-62
2021/12/25 05:21:57;;;;;;;4.87;4.03;;;;;;;-13.67;66.91;98742.19;5112828;28;20118;-62
2021/12/25 05:24:22;;;;;;;12.23;4.13;;;;;;;-13.73;66.44;98751.84;5113344;28;20031;-64
2021/12/25 05:26:48;;;;;;;5.13;4.73;;;;;;;-13.86;66.97;98734.44;5095031;28;20081;-60
2021/12/25 05:29:22;;;;;;;5.57;4.63;;;;;;;-13.90;66.74;98724.34;5113335;28;20138;-61
2021/12/25 05:31:47;;;;;;;5.03;4.63;;;;;;;-13.89;67.38;98720.91;5113708;28;20531;-63
2021/12/25 05:34:13;;;;;;;4.20;3.90;;;;;;;-13.85;66.97;98736.09;5113539;28;20039;-61
2021/12/25 05:36:38;;;;;;;4.50;4.20;;;;;;;-13.89;66.51;98731.97;5113178;28;20134;-61
2021/12/25 05:39:09;;;;;;;5.53;4.77;;;;;;;-13.92;67.44;98723.59;5095348;28;20177;-62
2021/12/25 05:41:34;;;;;;;5.03;4.60;;;;;;;-13.83;67.19;98741.16;5113546;28;20035;-66
2021/12/25 05:44:00;;;;;;;5.27;4.93;;;;;;;-13.82;66.65;98751.31;5113309;28;20035;-62
2021/12/25 05:46:25;;;;;;;4.67;4.33;;;;;;;-13.98;66.56;98726.41;5112945;28;20031;-64
2021/12/25 05:48:51;;;;;;;4.83;4.43;;;;;;;-13.90;66.57;98755.88;5113019;28;20031;-62
2021/12/25 05:51:18;;;;;;;4.90;4.50;;;;;;;-14.02;66.26;98751.25;5113223;28;20039;-63
2021/12/25 05:53:43;;;;;;;5.07;4.68;;;;;;;-14.01;66.50;98760.59;5113048;28;20084;-63
2021/12/25 05:56:09;;;;;;;4.30;3.90;;;;;;;-14.24;66.43;98738.47;5112842;28;20043;-62
2021/12/25 05:58:35;;;;;;;5.13;4.63;;;;;;;-14.21;66.61;98746.00;5112950;28;20088;-62
2021/12/25 06:01:01;;;;;;;6.53;5.70;;;;;;;-14.17;66.12;98773.13;5113334;28;20032;-62
2021/12/25 06:03:26;;;;;;;5.47;4.70;;;;;;;-14.30;66.62;98751.47;5113188;28;20509;-63
2021/12/25 06:05:52;;;;;;;5.03;4.57;;;;;;;-14.37;66.62;98749.22;5112719;28;20748;-62
2021/12/25 06:08:17;;;;;;;21.50;9.97;;;;;;;-14.23;67.76;98778.47;5112992;28;20031;-64
2021/12/25 06:10:44;;;;;;;5.73;5.33;;;;;;;-14.29;67.57;98768.50;5112815;28;20031;-63
2021/12/25 06:13:15;;;;;;;11.93;6.13;;;;;;;-14.22;67.96;98774.19;5113010;28;20154;-63
2021/12/25 06:15:42;;;;;;;5.72;5.32;;;;;;;-14.38;67.37;98771.41;5112956;28;20598;-62
2021/12/25 06:18:12;;;;;;;9.93;5.82;;;;;;;-14.32;66.85;98783.94;5112653;28;20040;-63
2021/12/25 06:20:38;;;;;;;5.55;5.05;;;;;;;-14.33;66.79;98791.69;5112680;28;20039;-65
2021/12/25 06:23:04;;;;;;;9.98;6.45;;;;;;;-14.34;67.65;98800.25;5112698;28;20039;-61
2021/12/25 06:25:29;;;;;;;6.77;5.37;;;;;;;-14.51;67.29;98780.41;5112602;28;20044;-62
2021/12/25 06:27:55;;;;;;;6.70;5.97;;;;;;;-14.61;67.80;98797.81;5094574;28;20407;-61
2021/12/25 06:30:21;;;;;;;6.40;5.90;;;;;;;-14.67;67.66;98792.09;5112708;28;20043;-64
2021/12/25 06:32:46;;;;;;;5.63;5.10;;;;;;;-14.73;67.66;98783.78;5112181;28;20269;-63
2021/12/25 06:35:12;;;;;;;6.57;5.97;;;;;;;-14.56;67.82;98811.25;5112489;28;20490;-66
2021/12/25 06:37:45;;;;;;;6.83;6.00;;;;;;;-14.69;67.38;98793.88;5112540;28;20066;-63
2021/12/25 06:40:16;;;;;;;7.53;6.18;;;;;;;-14.59;67.69;98816.47;5112393;28;20039;-65
2021/12/25 06:42:42;;;;;;;5.55;5.15;;;;;;;-14.66;67.56;98806.53;5094320;28;20036;-60
2021/12/25 06:45:08;;;;;;;5.43;4.93;;;;;;;-14.62;67.35;98815.75;5112227;28;20027;-63
2021/12/25 06:47:34;;;;;;;5.90;5.33;;;;;;;-15.37;67.48;98693.22;5112424;28;20038;-65
2021/12/25 06:49:59;;;;;;;9.53;5.67;;;;;;;-14.65;66.96;98806.47;5112929;28;20265;-64
2021/12/25 06:52:25;;;;;;;7.57;4.73;;;;;;;-14.90;67.43;98759.69;5112220;28;20092;-63
2021/12/25 06:54:50;;;;;;;6.60;6.10;;;;;;;-14.52;67.60;98833.25;5112094;28;20494;-65
2021/12/25 06:57:17;;;;;;;7.37;6.23;;;;;;;-14.59;67.56;98826.72;5112234;28;20027;-62
2021/12/25 06:59:44;;;;;;;8.05;7.32;;;;;;;-14.61;67.54;98827.66;5112155;28;20413;-63
2021/12/25 07:02:10;;;;;;;8.27;7.00;;;;;;;-14.55;67.14;98845.31;5112179;28;20035;-63
2021/12/25 07:04:35;;;;;;;8.27;6.80;;;;;;;-14.65;67.62;98821.00;5093819;28;20043;-66
2021/12/25 07:07:01;;;;;;;14.23;7.87;;;;;;;-14.61;66.85;98843.81;5112200;28;20038;-63
2021/12/25 07:09:26;;;;;;;9.50;6.37;;;;;;;-14.76;67.09;98832.38;5112079;28;20063;-62
2021/12/25 07:11:52;;;;;;;8.63;7.03;;;;;;;-14.94;66.50;98810.06;5093939;28;20459;-65
2021/12/25 07:14:20;;;;;;;8.30;6.57;;;;;;;-14.74;67.17;98838.31;5111828;28;20031;-64
2021/12/25 07:16:58;;;;;;;9.43;6.78;;;;;;;-14.77;66.90;98852.88;5110930;28;20088;-64
2021/12/25 07:19:32;;;;;;;10.95;6.82;;;;;;;-14.96;67.33;98827.16;5112285;28;20024;-65
2021/12/25 07:22:04;;;;;;;16.88;7.18;;;;;;;-14.78;66.91;98856.31;5094120;28;20507;-65
2021/12/25 07:24:30;;;;;;;10.07;7.40;;;;;;;-15.19;66.99;98796.44;5109340;28;20051;-67
2021/12/25 07:26:56;;;;;;;6.60;4.80;;;;;;;-14.86;66.74;98843.00;5111741;28;20536;-67
2021/12/25 07:29:22;;;;;;;8.63;6.55;;;;;;;-15.00;66.98;98833.25;5112038;28;20062;-67
2021/12/25 07:31:50;;;;;;;8.90;6.27;;;;;;;-14.86;67.34;98848.94;5094063;28;20176;-73
2021/12/25 07:34:16;;;;;;;19.70;6.65;;;;;;;-14.72;66.59;98861.25;5113047;28;20085;-68
2021/12/25 07:36:42;;;;;;;12.20;6.73;;;;;;;-14.64;66.54;98859.25;5112179;28;20032;-66
2021/12/25 07:39:10;;;;;;;11.83;7.80;;;;;;;-14.60;66.40;98865.09;5093428;28;20059;-65
2021/12/25 07:41:38;;;;;;;20.25;6.15;;;;;;;-14.59;66.20;98849.72;5111838;28;20106;-68
2021/12/25 07:44:04;;;;;;;;;;;;;;;-14.48;66.38;98859.53;5112633;28;20038;-66
2021/12/25 07:46:30;;;;;;;6.83;6.13;;;;;;;-14.68;65.32;98828.75;5115464;28;19916;-67
2021/12/25 07:48:56;;;;;;;10.83;6.40;;;;;;;-14.57;64.58;98859.88;5115356;28;20043;-67
2021/12/25 07:51:21;;;;;;;10.75;8.82;;;;;;;-14.59;65.13;98861.66;5116428;28;20092;-63
2021/12/25 07:53:47;;;;;;;8.37;7.17;;;;;;;-14.56;64.00;98872.59;5115369;28;20028;-65
2021/12/25 07:56:13;;;;;;;13.60;6.67;;;;;;;-14.75;64.07;98857.06;5116103;28;20054;-67
2021/12/25 07:58:38;;;;;;;9.75;6.43;;;;;;;-14.80;63.68;98853.81;5096667;28;20040;-67
2021/12/25 08:01:05;;;;;;;7.95;6.50;;;;;;;-14.88;63.74;98857.53;5114872;28;20066;-64
2021/12/25 08:03:31;;;;;;;9.05;6.32;;;;;;;-14.86;63.72;98868.53;5115451;28;20036;-65
2021/12/25 08:05:59;;;;;;;7.60;7.00;;;;;;;-15.09;64.23;98857.34;5114993;28;20027;-66
2021/12/25 08:08:25;;;;;;;10.90;6.30;;;;;;;-15.44;64.04;98814.28;5115185;28;20496;-63
2021/12/25 08:10:55;;;;;;;6.57;5.87;;;;;;;-15.21;64.36;98867.97;5114975;28;20090;-68
2021/12/25 08:13:21;;;;;;;7.15;6.38;;;;;;;-15.23;64.58;98874.84;5114902;28;20104;-65
2021/12/25 08:15:49;;;;;;;6.17;5.57;;;;;;;-15.27;64.57;98868.19;5096754;28;20578;-65
2021/12/25 08:18:15;;;;;;;15.10;12.15;;;;;;;-15.25;64.56;98870.69;5096625;28;20169;-64
2021/12/25 08:20:40;;;;;;;7.23;6.00;;;;;;;-15.15;64.99;98882.25;5114807;28;20130;-66
2021/12/25 08:23:07;;;;;;;10.00;6.53;;;;;;;-15.07;64.56;98885.38;5114465;28;20028;-63
2021/12/25 08:25:33;;;;;;;10.98;6.78;;;;;;;-14.99;64.42;98893.66;5114640;28;20046;-63
2021/12/25 08:27:59;;;;;;;6.68;5.22;;;;;;;-15.05;64.14;98884.47;5114467;28;20067;-65
2021/12/25 08:30:29;;;;;;;11.00;7.05;;;;;;;-15.08;63.63;98896.50;5078761;28;20051;-64
2021/12/25 08:32:58;;;;;;;11.52;7.05;;;;;;;-15.04;63.86;98909.09;5114643;28;20128;-67
2021/12/25 08:35:26;;;;;;;6.65;5.80;;;;;;;-15.14;64.27;98891.59;5114119;28;20627;-64
2021/12/25 08:37:54;;;;;;;10.35;7.13;;;;;;;-15.15;64.35;98902.69;5114456;28;20552;-65
2021/12/25 08:40:23;;;;;;;10.50;6.72;;;;;;;-15.32;64.01;98885.38;5114344;28;20054;-64
2021/12/25 08:42:53;;;;;;;9.77;7.80;;;;;;;-15.35;64.69;98896.47;5114431;28;20047;-63
2021/12/25 08:48:06;;;;;;;6.57;5.97;;;;;;;-15.11;65.31;98905.09;5114183;28;20039;-64
2021/12/25 08:50:32;;;;;;;7.80;6.97;;;;;;;-15.07;64.61;98906.66;5095696;28;20031;-62
2021/12/25 08:52:58;;;;;;;10.10;6.80;;;;;;;-15.11;65.46;98905.09;5114242;28;20034;-64
2021/12/25 08:55:27;;;;;;;9.10;7.33;;;;;;;-15.09;65.48;98920.34;5114416;28;20032;-63
2021/12/25 08:57:53;;;;;;;11.13;9.18;;;;;;;-15.12;65.45;98920.47;5113975;28;20036;-62
2021/12/25 09:00:19;;;;;;;12.23;8.13;;;;;;;-15.43;64.80;98870.38;5113978;28;20032;-63
2021/12/25 09:02:47;;;;;;;13.48;8.77;;;;;;;-15.05;64.85;98922.75;5114006;28;20079;-64
2021/12/25 09:05:12;;;;;;;12.23;8.18;;;;;;;-14.98;64.98;98925.97;5114563;28;20035;-64
2021/12/25 09:07:38;;;;;;;8.67;6.53;;;;;;;-14.90;65.07;98924.00;5114352;28;20040;-65
2021/12/25 09:10:04;;;;;;;8.93;8.00;;;;;;;-14.88;64.78;98932.44;5114615;28;20098;-67
2021/12/25 09:12:35;;;;;;;11.77;7.75;;;;;;;-14.96;64.51;98918.25;5114334;28;20062;-68
2021/12/25 09:15:22;;;;;;;8.20;5.40;;;;;;;-15.04;64.35;98903.16;5079279;28;20055;-63
2021/12/25 09:17:54;;;;;;;6.25;5.65;;;;;;;-14.95;64.01;98922.50;5113681;28;20039;-67
2021/12/25 09:20:27;;;;;;;7.72;6.97;;;;;;;-14.93;63.80;98928.38;5113978;28;20059;-69
2021/12/25 09:22:52;;;;;;;7.70;6.50;;;;;;;-15.00;64.29;98921.81;5114131;28;20028;-68
2021/12/25 09:25:18;;;;;;;8.30;7.60;;;;;;;-15.00;64.25;98927.75;5113813;28;20054;-71
2021/12/25 09:28:13;;;;;;;7.63;6.63;;;;;;;-15.06;64.51;98912.59;5113632;28;20040;-69
2021/12/25 09:30:39;;;;;;;8.30;6.60;;;;;;;-15.03;65.45;98932.97;5111915;28;20070;-67
2021/12/25 09:36:48;;;;;;;8.00;7.20;;;;;;;-15.09;64.40;98893.09;5113029;28;20039;-71
2021/12/25 09:39:19;;;;;;;7.32;6.63;;;;;;;-14.80;65.06;98925.34;5095383;28;20051;-68
2021/12/25 09:41:44;;;;;;;15.10;10.43;;;;;;;-14.79;64.69;98921.91;5078375;28;20108;-65
2021/12/25 09:44:10;;;;;;;10.43;7.33;;;;;;;-14.77;65.15;98909.94;5113384;28;20494;-67
2021/12/25 09:46:35;;;;;;;8.83;7.27;;;;;;;-14.69;64.56;98914.81;5113283;28;20046;-64
2021/12/25 09:49:02;;;;;;;9.00;7.40;;;;;;;-14.59;64.76;98920.44;5113318;28;20111;-65
2021/12/25 09:51:27;;;;;;;12.98;9.45;;;;;;;-14.55;64.93;98927.09;5094632;28;20169;-66
2021/12/25 09:54:15;;;;;;;10.20;8.27;;;;;;;-14.47;64.82;98935.34;5113226;28;20067;-62
2021/12/25 09:56:45;;;;;;;11.35;9.27;;;;;;;-14.47;64.68;98910.63;5113107;28;20035;-69
2021/12/25 09:59:11;;;;;;;11.60;10.27;;;;;;;-14.36;64.97;98920.47;5113237;28;20031;-63
2021/12/25 10:01:46;;;;;;;8.57;7.63;;;;;;;-14.26;64.57;98920.97;5114246;28;20054;-63
2021/12/25 10:04:41;;;;;;;15.75;8.82;;;;;;;-14.07;64.44;98931.38;5114566;28;20373;-65
2021/12/25 10:07:28;;;;;;;10.45;7.45;;;;;;;-13.98;64.53;98931.06;5114162;28;20498;-64
2021/12/25 10:10:13;;;;;;;13.25;8.27;;;;;;;-13.90;64.50;98929.03;5114894;28;20122;-64
2021/12/25 10:12:45;;;;;;;11.73;7.03;;;;;;;-13.83;64.55;98927.94;5114197;28;20039;-62
2021/12/25 10:15:19;;;;;;;9.13;7.70;;;;;;;-13.84;63.79;98910.94;5113131;28;20063;-64
2021/12/25 10:17:48;;;;;;;11.45;8.82;;;;;;;-13.67;64.17;98923.91;5094614;28;20038;-65
2021/12/25 10:20:21;;;;;;;14.15;8.45;;;;;;;-13.64;63.82;98931.47;5111871;28;20035;-63
2021/12/25 10:23:08;;;;;;;12.70;7.95;;;;;;;-13.92;64.25;98872.81;5093250;28;20039;-62
2021/12/25 10:25:56;;;;;;;10.85;8.48;;;;;;;-13.54;63.92;98932.81;5111835;28;20550;-61
2021/12/25 10:28:27;;;;;;;14.65;8.10;;;;;;;-13.59;63.98;98918.50;5111839;28;20036;-65
2021/12/25 10:31:00;;;;;;;12.10;7.68;;;;;;;-13.46;63.75;98924.84;5111504;28;20031;-63
2021/12/25 10:33:27;;;;;;;10.65;7.13;;;;;;;-13.48;63.87;98912.09;5111924;28;20038;-60
2021/12/25 10:35:54;;;;;;;14.85;9.20;;;;;;;-13.57;63.82;98886.88;5112508;28;20119;-63
2021/12/25 10:38:26;;;;;;;9.43;7.82;;;;;;;-13.27;64.77;98920.69;5112124;28;20067;-60
2021/12/25 10:41:20;;;;;;;9.73;7.25;;;;;;;-13.03;64.55;98923.97;5112577;28;20035;-63
2021/12/25 10:43:47;;;;;;;10.10;8.05;;;;;;;-13.06;63.26;98920.69;5112487;28;20032;-65
2021/12/25 10:46:13;;;;;;;10.57;7.72;;;;;;;-13.12;62.70;98911.53;5112747;28;20040;-65
2021/12/25 10:48:38;;;;;;;10.50;8.70;;;;;;;-13.07;63.18;98921.59;5095908;28;20027;-62
2021/12/25 10:51:05;;;;;;;11.13;6.83;;;;;;;-13.02;62.94;98917.94;5113119;28;20076;-69
2021/12/25 10:53:42;;;;;;;11.98;7.97;;;;;;;-13.07;63.13;98922.41;5113060;28;20035;-63
2021/12/25 10:56:14;;;;;;;13.32;9.48;;;;;;;-13.09;63.41;98924.22;5112992;28;20107;-62
2021/12/25 10:58:42;;;;;;;14.30;7.88;;;;;;;-13.04;63.06;98914.59;5112921;28;20084;-62
2021/12/25 11:01:10;;;;;;;10.65;8.88;;;;;;;-12.91;63.24;98931.19;5112721;28;20070;-62
2021/12/25 11:03:44;;;;;;;10.30;7.43;;;;;;;-12.86;63.84;98926.69;5112095;28;20101;-61
2021/12/25 11:06:16;;;;;;;12.25;8.27;;;;;;;-12.67;63.41;98918.28;5112013;28;20448;-61
2021/12/25 11:08:42;;;;;;;14.23;9.02;;;;;;;-12.62;63.15;98908.66;5112557;28;20035;-62
2021/12/25 11:11:13;;;;;;;11.35;8.98;;;;;;;-12.46;63.09;98924.22;5112817;28;20040;-62
2021/12/25 11:13:45;;;;;;;14.15;9.88;;;;;;;-12.27;63.21;98946.47;5112535;28;20042;-65
2021/12/25 11:16:22;;;;;;;13.57;9.63;;;;;;;-12.25;63.18;98948.97;5112649;28;20057;-62
2021/12/25 11:19:03;;;;;;;19.67;10.65;;;;;;;-12.29;62.88;98932.03;5112578;28;20039;-59
2021/12/25 11:21:32;;;;;;;10.32;8.05;;;;;;;-12.26;63.47;98937.88;5116884;28;20032;-64
2021/12/25 11:24:25;;;;;;;10.27;7.63;;;;;;;-12.25;63.76;98956.66;5116327;28;20051;-62
2021/12/25 11:26:58;;;;;;;8.30;6.85;;;;;;;-12.33;64.21;98956.16;5117280;28;20031;-62
2021/12/25 11:29:28;;;;;;;12.35;8.48;;;;;;;-12.52;64.28;98943.25;5117102;28;20035;-63
2021/12/25 11:31:56;;;;;;;10.85;6.82;;;;;;;-12.46;65.09;98953.25;5117194;28;20042;-59
2021/12/25 11:34:22;;;;;;;10.57;7.70;;;;;;;-12.49;65.56;98958.50;5116975;28;20508;-65
2021/12/25 11:36:50;;;;;;;10.45;7.65;;;;;;;-12.54;65.54;98953.59;5117692;28;20081;-62
2021/12/25 11:39:19;;;;;;;11.13;7.63;;;;;;;-12.53;65.52;98957.81;5118733;28;20051;-64
2021/12/25 11:41:47;;;;;;;10.05;8.50;;;;;;;-12.43;65.70;98970.25;5119247;28;20043;-64
2021/12/25 11:44:42;;;;;;;7.95;6.50;;;;;;;-12.52;66.08;98961.22;5117515;28;20494;-62
2021/12/25 11:47:27;;;;;;;7.35;6.60;;;;;;;-12.54;65.91;98965.56;5117624;28;20079;-62
2021/12/25 11:49:55;;;;;;;8.00;7.18;;;;;;;-12.68;66.14;98955.06;5118924;28;20093;-60
2021/12/25 11:52:25;;;;;;;12.43;8.73;;;;;;;-12.85;66.48;98936.06;5118174;28;20032;-62
2021/12/25 12:00:41;;;;;;;9.50;7.05;;;;;;;-12.86;66.99;98966.88;5118749;28;20043;-60
2021/12/25 12:03:26;;;;;;;8.60;7.03;;;;;;;-12.96;66.89;98955.31;5117923;28;20024;-58
2021/12/25 12:05:52;;;;;;;7.07;6.32;;;;;;;-12.93;67.09;98963.72;5116008;28;20036;-63
2021/12/25 12:08:20;;;;;;;16.20;7.20;;;;;;;-12.98;67.02;98952.00;5116679;28;20083;-62
2021/12/25 12:10:49;;;;;;;9.73;6.27;;;;;;;-12.87;67.42;98963.47;5115663;28;20036;-64
2021/12/25 12:13:17;;;;;;;10.95;6.40;;;;;;;-12.83;68.01;98972.72;5116178;28;20099;-60
2021/12/25 12:15:45;;;;;;;7.55;6.10;;;;;;;-12.88;67.60;98949.00;5115491;28;20088;-63
2021/12/25 12:18:31;;;;;;;9.80;6.43;;;;;;;-12.77;67.86;98960.53;5115645;28;20078;-61
2021/12/25 12:21:06;;;;;;;8.05;5.72;;;;;;;-12.80;67.80;98935.03;5097509;28;20427;-59
2021/12/25 12:24:10;;;;;;;7.25;6.47;;;;;;;-12.85;67.85;98927.53;5115319;28;20035;-65
2021/12/25 12:26:53;;;;;;;11.15;5.70;;;;;;;-12.74;67.75;98939.91;5097782;28;20062;-56
2021/12/25 12:29:40;;;;;;;7.38;6.53;;;;;;;-12.79;67.89;98936.69;5115966;28;20123;-63
2021/12/25 12:32:07;;;;;;;7.63;6.03;;;;;;;-12.97;68.54;98918.63;5115152;28;20032;-62
2021/12/25 12:34:40;;;;;;;7.10;6.28;;;;;;;-12.75;68.76;98943.34;5116171;28;20039;-59
2021/12/25 12:37:15;;;;;;;8.43;6.75;;;;;;;-12.68;68.99;98937.13;5115361;28;20031;-59
2021/12/25 12:40:00;;;;;;;10.45;6.78;;;;;;;-12.62;68.82;98939.41;5115926;28;20056;-61
2021/12/25 12:42:43;;;;;;;14.10;7.55;;;;;;;-12.54;68.61;98939.94;5116040;28;20081;-61
2021/12/25 12:45:20;;;;;;;8.13;6.95;;;;;;;-12.49;68.44;98948.25;5114834;28;20028;-63
2021/12/25 12:48:11;;;;;;;7.55;6.85;;;;;;;-12.47;68.48;98943.06;5096992;28;20073;-56
2021/12/25 12:50:38;;;;;;;9.70;7.88;;;;;;;-12.59;68.68;98929.88;5097139;28;20031;-57
2021/12/25 12:53:07;;;;;;;10.05;6.93;;;;;;;-12.57;69.46;98934.94;5115853;28;20036;-64
2021/12/25 12:55:35;;;;;;;15.50;8.88;;;;;;;-12.60;70.86;98932.50;5116132;28;20042;-59
2021/12/25 12:58:08;;;;;;;11.02;8.07;;;;;;;-12.57;70.63;98933.19;5115388;28;20064;-58
2021/12/25 13:00:35;;;;;;;10.48;7.45;;;;;;;-12.45;70.86;98936.97;5115437;28;20132;-61
2021/12/25 13:03:01;;;;;;;14.00;8.02;;;;;;;-12.36;70.63;98939.16;5114737;28;20032;-62